Time;durP1;ratioP1;P1;durP2;ratioP2;P2;SDS_P1;SDS_P2;PMS_P1;PMS_P2;Temp;Humidity;BMP_temperature;BMP_pressure;BME280_temperature;BME280_humidity;BME280_pressure;Samples;Min_cycle;Max_cycle;Signal;HPM_P1;HPM_P2
2023/09/23 00:01:14;;;;;;;;;;;15.70;83.70;;;;;;5053641;28;19938;-78
2023/09/23 00:03:41;;;;;;;;;;;15.70;83.80;;;;;;5048457;28;20052;-79
2023/09/23 00:06:10;;;;;;;;;;;15.60;83.70;;;;;;5069856;28;19928;-77
2023/09/23 00:08:36;;;;;;;;;;;15.70;83.70;;;;;;5076529;28;20449;-77
2023/09/23 00:11:04;;;;;;;;;;;15.60;83.70;;;;;;5063594;28;20019;-77
2023/09/23 00:13:32;;;;;;;;;;;15.60;83.80;;;;;;5050258;28;20733;-79
2023/09/23 00:15:59;;;;;;;;;;;15.60;83.80;;;;;;5067846;28;19939;-78
2023/09/23 00:18:26;;;;;;;;;;;15.60;83.80;;;;;;5078517;28;19928;-78
2023/09/23 00:20:53;;;;;;;;;;;15.50;83.80;;;;;;5060608;28;20470;-77
2023/09/23 00:23:23;;;;;;;;;;;15.60;84.00;;;;;;5065959;28;20366;-78
2023/09/23 00:25:49;;;;;;;;;;;15.50;83.80;;;;;;5072539;28;19940;-79
2023/09/23 00:28:16;;;;;;;;;;;15.50;83.80;;;;;;5046679;28;19990;-77
2023/09/23 00:30:45;;;;;;;;;;;15.50;83.90;;;;;;5064407;28;19933;-78
2023/09/23 00:33:16;;;;;;;;;;;15.50;83.80;;;;;;5066499;28;20021;-78
2023/09/23 00:35:44;;;;;;;;;;;15.40;83.80;;;;;;5070347;28;19934;-79
2023/09/23 00:38:12;;;;;;;;;;;15.40;83.90;;;;;;5071574;28;19995;-77
2023/09/23 00:40:41;;;;;;;;;;;15.40;83.80;;;;;;5067549;28;20318;-78
2023/09/23 00:43:12;;;;;;;;;;;15.40;84.00;;;;;;5066819;28;20071;-77
2023/09/23 00:45:40;;;;;;;;;;;15.40;84.00;;;;;;5069794;28;20353;-77
2023/09/23 00:48:08;;;;;;;;;;;15.40;83.90;;;;;;5069992;28;20130;-77
2023/09/23 00:50:35;;;;;;;;;;;15.30;83.80;;;;;;5067310;28;19982;-78
2023/09/23 00:53:04;;;;;;;;;;;15.30;83.90;;;;;;5064957;28;19928;-79
2023/09/23 00:55:39;;;;;;;;;;;15.30;83.90;;;;;;5057231;28;19936;-78
2023/09/23 00:58:07;;;;;;;;;;;15.30;83.90;;;;;;5049053;28;19993;-78
2023/09/23 01:00:36;;;;;;;;;;;15.20;83.80;;;;;;5062166;28;19928;-77
2023/09/23 01:03:03;;;;;;;;;;;15.30;83.90;;;;;;5075693;28;19959;-77
2023/09/23 01:05:30;;;;;;;;;;;15.20;83.90;;;;;;5071910;28;19928;-77
2023/09/23 01:07:58;;;;;;;;;;;15.20;83.90;;;;;;5072072;28;19956;-77
2023/09/23 01:10:24;;;;;;;;;;;15.20;84.00;;;;;;5050215;28;19936;-78
2023/09/23 01:12:51;;;;;;;;;;;15.20;84.00;;;;;;5066549;28;19935;-78
2023/09/23 01:15:21;;;;;;;;;;;15.20;84.00;;;;;;5053240;28;19928;-77
2023/09/23 01:17:53;;;;;;;;;;;15.10;84.00;;;;;;5069633;28;19928;-77
2023/09/23 01:20:20;;;;;;;;;;;15.10;83.90;;;;;;5073822;28;20387;-78
2023/09/23 01:22:48;;;;;;;;;;;15.20;84.00;;;;;;5079273;28;19988;-75
2023/09/23 01:25:16;;;;;;;;;;;15.10;84.10;;;;;;5066964;28;19933;-76
2023/09/23 01:27:43;;;;;;;;;;;15.10;84.10;;;;;;5052645;28;19939;-78
2023/09/23 01:30:12;;;;;;;;;;;15.10;84.00;;;;;;5067686;28;19957;-78
2023/09/23 01:32:46;;;;;;;;;;;15.10;84.10;;;;;;5069576;28;19936;-78
2023/09/23 01:35:16;;;;;;;;;;;15.10;84.10;;;;;;5070540;28;20015;-79
2023/09/23 01:37:44;;;;;;;;;;;15.10;84.20;;;;;;5071270;28;20337;-79
2023/09/23 01:40:17;;;;;;;;;;;15.00;84.10;;;;;;5072410;28;19929;-78
2023/09/23 01:42:44;;;;;;;;;;;15.00;84.10;;;;;;5076772;28;19929;-78
2023/09/23 01:45:13;;;;;;;;;;;15.00;84.10;;;;;;5067603;28;19990;-78
2023/09/23 01:47:40;;;;;;;;;;;15.00;84.00;;;;;;5071063;28;19978;-78
2023/09/23 01:50:07;;;;;;;;;;;15.00;84.20;;;;;;5072625;28;19935;-78
2023/09/23 01:52:34;;;;;;;;;;;15.00;84.10;;;;;;5071560;28;19932;-78
2023/09/23 01:55:01;;;;;;;;;;;15.00;84.20;;;;;;5082789;22;19929;-69
2023/09/23 01:57:30;;;;;;;;;;;14.90;84.00;;;;;;5060306;28;19971;-70
2023/09/23 01:59:57;;;;;;;;;;;14.90;83.90;;;;;;5068165;28;19968;-70
2023/09/23 02:02:23;;;;;;;;;;;14.90;83.80;;;;;;5065259;28;19928;-69
2023/09/23 02:04:50;;;;;;;;;;;14.90;83.70;;;;;;5066573;28;19929;-70
2023/09/23 02:07:17;;;;;;;;;;;14.90;83.70;;;;;;5070206;28;19932;-69
2023/09/23 02:09:45;;;;;;;;;;;14.90;83.70;;;;;;5069621;28;20025;-71
2023/09/23 02:12:12;;;;;;;;;;;14.80;83.60;;;;;;5061500;28;19928;-70
2023/09/23 02:14:41;;;;;;;;;;;14.80;83.80;;;;;;5067598;28;19928;-69
2023/09/23 02:17:08;;;;;;;;;;;14.80;83.80;;;;;;5069402;28;19935;-69
2023/09/23 02:19:34;;;;;;;;;;;14.80;83.80;;;;;;5066717;28;19936;-69
2023/09/23 02:22:05;;;;;;;;;;;14.80;83.80;;;;;;5067306;28;19928;-69
2023/09/23 02:24:32;;;;;;;;;;;14.80;83.90;;;;;;5067041;28;19960;-70
2023/09/23 02:26:59;;;;;;;;;;;14.80;83.90;;;;;;5066138;28;19937;-70
2023/09/23 02:29:25;;;;;;;;;;;14.70;84.00;;;;;;5063437;28;19932;-69
2023/09/23 02:31:53;;;;;;;;;;;14.70;83.90;;;;;;5065580;28;19959;-70
2023/09/23 02:34:20;;;;;;;;;;;14.70;84.10;;;;;;5064643;28;19962;-69
2023/09/23 02:36:47;;;;;;;;;;;14.70;84.10;;;;;;5069826;28;19924;-70
2023/09/23 02:39:16;;;;;;;;;;;14.70;84.00;;;;;;5065346;28;20390;-70
2023/09/23 02:41:45;;;;;;;;;;;14.60;83.90;;;;;;5066603;28;20011;-69
2023/09/23 02:44:12;;;;;;;;;;;14.60;84.00;;;;;;5067616;28;19928;-70
2023/09/23 02:46:39;;;;;;;;;;;14.60;83.90;;;;;;5069092;28;20407;-70
2023/09/23 02:49:09;;;;;;;;;;;14.60;84.00;;;;;;5064218;28;20011;-70
2023/09/23 02:51:35;;;;;;;;;;;14.60;84.10;;;;;;5065831;28;19935;-70
2023/09/23 02:54:03;;;;;;;;;;;14.60;84.00;;;;;;5067554;28;20493;-69
2023/09/23 02:56:30;;;;;;;;;;;14.60;84.10;;;;;;5064010;28;20422;-71
2023/09/23 02:58:57;;;;;;;;;;;14.50;84.10;;;;;;5067545;28;19932;-69
2023/09/23 03:01:25;;;;;;;;;;;14.50;84.10;;;;;;5064143;28;19972;-69
2023/09/23 03:03:51;;;;;;;;;;;14.50;84.10;;;;;;5064179;28;19935;-70
2023/09/23 03:06:19;;;;;;;;;;;14.50;84.20;;;;;;5067511;28;20010;-70
2023/09/23 03:08:47;;;;;;;;;;;14.50;84.30;;;;;;5064633;28;20332;-69
2023/09/23 03:11:18;;;;;;;;;;;14.50;84.30;;;;;;5064355;28;19939;-70
2023/09/23 03:13:44;;;;;;;;;;;14.50;84.30;;;;;;5064687;28;19935;-71
2023/09/23 03:16:14;;;;;;;;;;;14.50;84.40;;;;;;5065926;28;19933;-70
2023/09/23 03:18:54;;;;;;;;;;;14.50;84.40;;;;;;5067205;28;19929;-70
2023/09/23 03:21:22;;;;;;;;;;;14.50;84.60;;;;;;5064608;28;19934;-70
2023/09/23 03:23:49;;;;;;;;;;;14.40;84.40;;;;;;5065455;28;19929;-70
2023/09/23 03:26:19;;;;;;;;;;;14.40;84.40;;;;;;5066359;28;19929;-70
2023/09/23 03:28:46;;;;;;;;;;;14.40;84.50;;;;;;5067993;28;19928;-70
2023/09/23 03:31:14;;;;;;;;;;;14.40;84.50;;;;;;5063207;28;19934;-69
2023/09/23 03:33:41;;;;;;;;;;;14.40;84.60;;;;;;5063411;28;19936;-70
2023/09/23 03:36:14;;;;;;;;;;;14.40;84.50;;;;;;5068675;28;20101;-70
2023/09/23 03:38:42;;;;;;;;;;;14.30;84.60;;;;;;5067395;28;19939;-69
2023/09/23 03:41:11;;;;;;;;;;;14.30;84.60;;;;;;5066110;28;19939;-70
2023/09/23 03:43:39;;;;;;;;;;;14.30;84.60;;;;;;5066634;28;19932;-71
2023/09/23 03:46:11;;;;;;;;;;;14.30;84.60;;;;;;5066920;28;20379;-71
2023/09/23 03:48:37;;;;;;;;;;;14.30;84.70;;;;;;5063844;28;19966;-68
2023/09/23 03:51:06;;;;;;;;;;;14.30;84.70;;;;;;5068173;28;19928;-70
2023/09/23 03:53:33;;;;;;;;;;;14.30;84.80;;;;;;5065196;28;20015;-70
2023/09/23 03:56:01;;;;;;;;;;;14.20;84.70;;;;;;5065225;28;19933;-70
2023/09/23 03:58:28;;;;;;;;;;;14.20;84.70;;;;;;5066908;28;19952;-70
2023/09/23 04:00:55;;;;;;;;;;;14.20;84.90;;;;;;5065570;28;19972;-70
2023/09/23 04:03:22;;;;;;;;;;;14.20;84.90;;;;;;5062933;28;20007;-70
2023/09/23 04:05:53;;;;;;;;;;;14.20;84.90;;;;;;5065880;28;19964;-70
2023/09/23 04:08:20;;;;;;;;;;;14.20;85.00;;;;;;5059693;28;20001;-70
2023/09/23 04:10:46;;;;;;;;;;;14.20;85.00;;;;;;5064174;28;19940;-69
2023/09/23 04:13:15;;;;;;;;;;;14.20;85.00;;;;;;5065778;28;19928;-71
2023/09/23 04:15:41;;;;;;;;;;;14.10;84.90;;;;;;5064446;28;19968;-71
2023/09/23 04:18:09;;;;;;;;;;;14.10;85.00;;;;;;5066858;28;19932;-71
2023/09/23 04:20:35;;;;;;;;;;;14.10;85.00;;;;;;5065887;28;19928;-71
2023/09/23 04:23:03;;;;;;;;;;;14.10;85.10;;;;;;5066086;28;19932;-71
2023/09/23 04:25:29;;;;;;;;;;;14.10;85.20;;;;;;5063778;28;20069;-70
2023/09/23 04:27:56;;;;;;;;;;;14.10;85.20;;;;;;5064196;28;19955;-70
2023/09/23 04:30:25;;;;;;;;;;;14.10;85.20;;;;;;5063966;28;19933;-71
2023/09/23 04:32:52;;;;;;;;;;;14.10;85.30;;;;;;5064070;28;19939;-70
2023/09/23 04:35:19;;;;;;;;;;;14.00;85.30;;;;;;5065616;28;19928;-70
2023/09/23 04:37:45;;;;;;;;;;;14.00;85.30;;;;;;5068870;28;20020;-71
2023/09/23 04:40:13;;;;;;;;;;;14.00;85.40;;;;;;5065849;28;19983;-71
2023/09/23 04:42:39;;;;;;;;;;;14.00;85.40;;;;;;5069192;28;19935;-69
2023/09/23 04:45:07;;;;;;;;;;;14.00;85.50;;;;;;5070286;28;19927;-69
2023/09/23 04:47:36;;;;;;;;;;;14.00;85.40;;;;;;5067871;28;19928;-70
2023/09/23 04:50:03;;;;;;;;;;;14.00;85.50;;;;;;5066277;28;19940;-71
2023/09/23 04:52:30;;;;;;;;;;;13.90;85.50;;;;;;5068975;28;19929;-71
2023/09/23 04:54:57;;;;;;;;;;;13.90;85.50;;;;;;5067219;28;19932;-70
2023/09/23 04:57:23;;;;;;;;;;;13.90;85.60;;;;;;5065363;28;19924;-70
2023/09/23 04:59:52;;;;;;;;;;;13.90;85.60;;;;;;5069218;28;19932;-70
2023/09/23 05:02:19;;;;;;;;;;;13.90;85.60;;;;;;5067803;28;19947;-70
2023/09/23 05:04:48;;;;;;;;;;;13.90;85.50;;;;;;5064784;28;20031;-73
2023/09/23 05:07:15;;;;;;;;;;;13.80;85.50;;;;;;5066407;28;19924;-70
2023/09/23 05:09:41;;;;;;;;;;;13.80;85.50;;;;;;5065690;28;19928;-70
2023/09/23 05:12:08;;;;;;;;;;;13.80;85.60;;;;;;5061088;28;20234;-71
2023/09/23 05:14:35;;;;;;;;;;;13.80;85.60;;;;;;5068309;28;19959;-69
2023/09/23 05:17:04;;;;;;;;;;;13.80;85.70;;;;;;5067410;28;19936;-70
2023/09/23 05:19:31;;;;;;;;;;;13.80;85.70;;;;;;5064624;28;19933;-71
2023/09/23 05:21:59;;;;;;;;;;;13.80;85.70;;;;;;5068551;28;19935;-68
2023/09/23 05:24:26;;;;;;;;;;;13.70;85.70;;;;;;5068742;28;19928;-70
2023/09/23 05:26:54;;;;;;;;;;;13.70;85.80;;;;;;5067210;28;19935;-71
2023/09/23 05:29:21;;;;;;;;;;;13.70;85.80;;;;;;5066994;28;19928;-71
2023/09/23 05:31:48;;;;;;;;;;;13.70;85.80;;;;;;5066118;28;20447;-71
2023/09/23 05:34:15;;;;;;;;;;;13.70;85.70;;;;;;5065818;28;19935;-70
2023/09/23 05:36:42;;;;;;;;;;;13.70;85.80;;;;;;5067257;28;19964;-70
2023/09/23 05:39:12;;;;;;;;;;;13.70;85.80;;;;;;5067290;28;19928;-70
2023/09/23 05:41:39;;;;;;;;;;;13.70;85.80;;;;;;5063098;28;20376;-70
2023/09/23 05:44:07;;;;;;;;;;;13.70;85.90;;;;;;5062140;28;19972;-70
2023/09/23 05:46:33;;;;;;;;;;;13.60;85.80;;;;;;5067216;28;20434;-69
2023/09/23 05:49:02;;;;;;;;;;;13.60;85.80;;;;;;5065406;28;19940;-71
2023/09/23 05:51:28;;;;;;;;;;;13.60;85.90;;;;;;5067951;28;19951;-70
2023/09/23 05:53:55;;;;;;;;;;;13.60;86.00;;;;;;5068353;28;19928;-70
2023/09/23 05:56:23;;;;;;;;;;;13.60;86.00;;;;;;5062011;28;19935;-71
2023/09/23 05:58:50;;;;;;;;;;;13.60;86.00;;;;;;5066883;28;19939;-68
2023/09/23 06:01:16;;;;;;;;;;;13.60;86.00;;;;;;5067159;28;19928;-70
2023/09/23 06:03:44;;;;;;;;;;;13.60;86.10;;;;;;5064506;28;19932;-70
2023/09/23 06:06:11;;;;;;;;;;;13.50;86.10;;;;;;5068478;28;19971;-69
2023/09/23 06:08:37;;;;;;;;;;;13.60;86.10;;;;;;5068708;28;20357;-71
2023/09/23 06:11:04;;;;;;;;;;;13.50;86.10;;;;;;5066925;28;19928;-69
2023/09/23 06:13:32;;;;;;;;;;;13.50;86.10;;;;;;5068344;28;19935;-70
2023/09/23 06:16:02;;;;;;;;;;;13.50;86.10;;;;;;5064472;28;19928;-71
2023/09/23 06:18:29;;;;;;;;;;;13.50;86.20;;;;;;5064348;28;20600;-71
2023/09/23 06:20:57;;;;;;;;;;;13.50;86.20;;;;;;5063385;28;20232;-69
2023/09/23 06:23:24;;;;;;;;;;;13.50;86.30;;;;;;5067692;28;19940;-70
2023/09/23 06:25:52;;;;;;;;;;;13.50;86.30;;;;;;5065603;28;19937;-70
2023/09/23 06:28:19;;;;;;;;;;;13.60;86.40;;;;;;5064885;28;20403;-70
2023/09/23 06:30:47;;;;;;;;;;;13.50;86.30;;;;;;5066383;28;19928;-69
2023/09/23 06:33:13;;;;;;;;;;;13.50;86.30;;;;;;5069412;28;19939;-69
2023/09/23 06:35:40;;;;;;;;;;;13.50;86.40;;;;;;5062946;28;19940;-70
2023/09/23 06:38:06;;;;;;;;;;;13.50;86.40;;;;;;5067388;28;19935;-70
2023/09/23 06:40:33;;;;;;;;;;;13.50;86.40;;;;;;5059210;28;19928;-69
2023/09/23 06:42:59;;;;;;;;;;;13.50;86.40;;;;;;5058640;28;19929;-69
2023/09/23 06:45:26;;;;;;;;;;;13.50;86.50;;;;;;5060797;28;19951;-70
2023/09/23 06:47:54;;;;;;;;;;;13.50;86.50;;;;;;5065816;28;19931;-70
2023/09/23 06:50:21;;;;;;;;;;;13.50;86.60;;;;;;5063596;28;19929;-69
2023/09/23 06:52:47;;;;;;;;;;;13.50;86.60;;;;;;5064872;28;20024;-70
2023/09/23 06:55:14;;;;;;;;;;;13.50;86.70;;;;;;5060668;28;19933;-71
2023/09/23 06:57:40;;;;;;;;;;;13.50;86.70;;;;;;5065954;28;19935;-70
2023/09/23 07:00:07;;;;;;;;;;;13.40;86.60;;;;;;5058895;28;20422;-68
2023/09/23 07:02:34;;;;;;;;;;;13.50;86.70;;;;;;5066784;28;20347;-70
2023/09/23 07:05:03;;;;;;;;;;;13.50;86.80;;;;;;5062046;28;20051;-70
2023/09/23 07:07:29;;;;;;;;;;;13.50;86.80;;;;;;5064613;28;20051;-70
2023/09/23 07:09:56;;;;;;;;;;;13.50;87.00;;;;;;5064042;28;19935;-70
2023/09/23 07:12:22;;;;;;;;;;;13.40;87.00;;;;;;5065259;28;19935;-68
2023/09/23 07:14:49;;;;;;;;;;;13.50;87.20;;;;;;5066220;28;19935;-70
2023/09/23 07:17:17;;;;;;;;;;;13.50;87.30;;;;;;5061041;28;19972;-69
2023/09/23 07:19:46;;;;;;;;;;;13.50;87.40;;;;;;5058751;28;19938;-69
2023/09/23 07:22:14;;;;;;;;;;;13.40;87.30;;;;;;5057197;28;20296;-69
2023/09/23 07:24:40;;;;;;;;;;;13.40;87.40;;;;;;5066008;28;19948;-71
2023/09/23 07:27:07;;;;;;;;;;;13.40;88.20;;;;;;5059109;28;20235;-71
2023/09/23 07:29:33;;;;;;;;;;;13.40;87.60;;;;;;5061370;28;20388;-70
2023/09/23 07:32:00;;;;;;;;;;;13.40;87.60;;;;;;5059669;28;20398;-69
2023/09/23 07:34:26;;;;;;;;;;;13.40;87.60;;;;;;5062708;28;20443;-70
2023/09/23 07:36:53;;;;;;;;;;;13.40;88.30;;;;;;5062678;28;20475;-71
2023/09/23 07:39:22;;;;;;;;;;;13.40;87.60;;;;;;5066042;28;19936;-70
2023/09/23 07:41:48;;;;;;;;;;;13.40;87.70;;;;;;5061318;28;19943;-71
2023/09/23 07:44:15;;;;;;;;;;;13.40;87.70;;;;;;5064120;28;19935;-70
2023/09/23 07:46:42;;;;;;;;;;;13.50;87.80;;;;;;5062124;28;20012;-72
2023/09/23 07:49:09;;;;;;;;;;;13.50;87.80;;;;;;5056332;28;19932;-71
2023/09/23 07:51:37;;;;;;;;;;;13.40;87.60;;;;;;5061698;28;19929;-70
2023/09/23 07:54:03;;;;;;;;;;;13.40;87.60;;;;;;5064066;28;19975;-70
2023/09/23 07:56:31;;;;;;;;;;;13.50;87.80;;;;;;5057337;28;19929;-70
2023/09/23 07:58:58;;;;;;;;;;;13.50;87.70;;;;;;5064262;28;20419;-71
2023/09/23 08:01:24;;;;;;;;;;;13.50;87.70;;;;;;5056193;28;19935;-69
2023/09/23 08:03:52;;;;;;;;;;;13.50;88.40;;;;;;5063619;28;19932;-70
2023/09/23 08:06:18;;;;;;;;;;;13.50;87.70;;;;;;5061412;28;19951;-70
2023/09/23 08:08:45;;;;;;;;;;;13.50;87.70;;;;;;5054999;28;19989;-69
2023/09/23 08:11:11;;;;;;;;;;;13.50;87.60;;;;;;5054736;28;19939;-70
2023/09/23 08:13:39;;;;;;;;;;;13.60;87.70;;;;;;5064273;28;19928;-70
2023/09/23 08:16:06;;;;;;;;;;;13.60;87.60;;;;;;5058643;28;20275;-70
2023/09/23 08:18:33;;;;;;;;;;;13.60;87.60;;;;;;5052585;28;19952;-70
2023/09/23 08:20:59;;;;;;;;;;;13.60;87.60;;;;;;5059063;28;19983;-69
2023/09/23 08:23:26;;;;;;;;;;;13.60;87.50;;;;;;5059222;28;19940;-69
2023/09/23 08:25:53;;;;;;;;;;;13.70;87.40;;;;;;5059287;28;19932;-71
2023/09/23 08:28:20;;;;;;;;;;;13.60;87.30;;;;;;5060132;28;19935;-70
2023/09/23 08:30:50;;;;;;;;;;;13.70;87.20;;;;;;5055132;28;19928;-69
2023/09/23 08:33:16;;;;;;;;;;;13.70;87.10;;;;;;5060374;28;19971;-70
2023/09/23 08:35:43;;;;;;;;;;;13.80;87.00;;;;;;5069431;28;19936;-71
2023/09/23 08:38:09;;;;;;;;;;;13.80;86.90;;;;;;5066093;28;19932;-71
2023/09/23 08:40:37;;;;;;;;;;;13.90;86.80;;;;;;5068737;28;19928;-71
2023/09/23 08:43:05;;;;;;;;;;;13.90;86.70;;;;;;5072309;28;19959;-69
2023/09/23 08:45:32;;;;;;;;;;;13.90;86.60;;;;;;5067815;28;19940;-70
2023/09/23 08:47:59;;;;;;;;;;;14.00;86.50;;;;;;5071414;28;19928;-71
2023/09/23 08:50:26;;;;;;;;;;;14.10;86.30;;;;;;5068699;28;19940;-70
2023/09/23 08:52:53;;;;;;;;;;;14.10;86.10;;;;;;5071410;28;19928;-71
2023/09/23 08:55:21;;;;;;;;;;;14.20;85.80;;;;;;5063172;28;20031;-69
2023/09/23 08:57:47;;;;;;;;;;;14.30;85.50;;;;;;5069448;28;20377;-68
2023/09/23 09:00:17;;;;;;;;;;;14.30;85.20;;;;;;5064678;28;19929;-69
2023/09/23 09:02:44;;;;;;;;;;;14.30;85.10;;;;;;5067463;28;20395;-69
2023/09/23 09:05:13;;;;;;;;;;;14.40;84.90;;;;;;5066261;28;19936;-67
2023/09/23 09:07:40;;;;;;;;;;;14.50;84.50;;;;;;5064204;28;20371;-70
2023/09/23 09:10:07;;;;;;;;;;;14.50;84.20;;;;;;5065801;28;19928;-70
2023/09/23 09:12:34;;;;;;;;;;;14.60;84.10;;;;;;5066073;28;20359;-70
2023/09/23 09:15:01;;;;;;;;;;;14.60;84.10;;;;;;5064022;28;19936;-69
2023/09/23 09:17:27;;;;;;;;;;;14.70;83.90;;;;;;5064945;28;19935;-70
2023/09/23 09:19:54;;;;;;;;;;;14.70;84.00;;;;;;5062872;28;19935;-69
2023/09/23 09:22:22;;;;;;;;;;;14.80;83.70;;;;;;5070739;28;19935;-69
2023/09/23 09:24:48;;;;;;;;;;;14.80;83.30;;;;;;5067130;28;19928;-69
2023/09/23 09:27:15;;;;;;;;;;;14.90;83.20;;;;;;5069537;28;20383;-70
2023/09/23 09:29:43;;;;;;;;;;;15.00;82.70;;;;;;5072072;28;19971;-70
2023/09/23 09:32:10;;;;;;;;;;;15.10;82.80;;;;;;5070424;28;19932;-70
2023/09/23 09:34:43;;;;;;;;;;;15.10;82.70;;;;;;5062949;28;19971;-69
2023/09/23 09:37:11;;;;;;;;;;;15.20;82.50;;;;;;5070088;28;19928;-69
2023/09/23 09:39:42;;;;;;;;;;;15.20;82.40;;;;;;5067228;28;19939;-69
2023/09/23 09:42:11;;;;;;;;;;;15.30;81.60;;;;;;5067641;28;19928;-70
2023/09/23 09:44:38;;;;;;;;;;;15.30;81.60;;;;;;5065842;28;19928;-68
2023/09/23 09:47:05;;;;;;;;;;;15.40;81.40;;;;;;5067814;28;19936;-69
2023/09/23 09:49:32;;;;;;;;;;;15.40;81.40;;;;;;5069032;28;19928;-69
2023/09/23 09:51:59;;;;;;;;;;;15.50;81.50;;;;;;5068597;28;19937;-69
2023/09/23 09:54:26;;;;;;;;;;;15.50;80.70;;;;;;5073390;28;20331;-69
2023/09/23 09:56:56;;;;;;;;;;;15.60;80.30;;;;;;5061368;28;20604;-70
2023/09/23 09:59:23;;;;;;;;;;;15.70;80.40;;;;;;5066467;28;19929;-69
2023/09/23 10:01:50;;;;;;;;;;;15.70;80.60;;;;;;5066374;28;19963;-69
2023/09/23 10:04:18;;;;;;;;;;;15.80;79.90;;;;;;5068281;28;19978;-70
2023/09/23 10:06:50;;;;;;;;;;;15.90;79.80;;;;;;5062263;28;19958;-69
2023/09/23 10:09:18;;;;;;;;;;;15.90;79.70;;;;;;5066238;28;19929;-69
2023/09/23 10:11:52;;;;;;;;;;;16.00;79.40;;;;;;5067414;28;19929;-69
2023/09/23 10:14:20;;;;;;;;;;;16.00;79.00;;;;;;5068338;28;19968;-68
2023/09/23 10:16:50;;;;;;;;;;;16.10;79.10;;;;;;5070192;28;19928;-69
2023/09/23 10:19:19;;;;;;;;;;;16.10;79.00;;;;;;5065052;28;20029;-68
2023/09/23 10:21:47;;;;;;;;;;;16.20;79.00;;;;;;5062664;28;19928;-69
2023/09/23 10:24:19;;;;;;;;;;;16.20;78.50;;;;;;5063894;28;19955;-70
2023/09/23 10:26:46;;;;;;;;;;;16.30;78.10;;;;;;5060277;28;20384;-69
2023/09/23 10:29:13;;;;;;;;;;;16.30;77.50;;;;;;5068744;28;19932;-71
2023/09/23 10:31:41;;;;;;;;;;;16.40;77.40;;;;;;5073691;28;19928;-69
2023/09/23 10:34:10;;;;;;;;;;;16.40;77.00;;;;;;5066814;28;19932;-69
2023/09/23 10:36:36;;;;;;;;;;;16.50;77.60;;;;;;5062270;28;19928;-69
2023/09/23 10:39:06;;;;;;;;;;;16.50;77.00;;;;;;5069879;28;19932;-71
2023/09/23 10:41:34;;;;;;;;;;;16.60;76.80;;;;;;5071643;28;20056;-69
2023/09/23 10:44:02;;;;;;;;;;;16.70;77.60;;;;;;5070528;28;19928;-69
2023/09/23 10:46:29;;;;;;;;;;;16.70;76.30;;;;;;5072374;28;20457;-69
2023/09/23 10:48:57;;;;;;;;;;;16.80;76.00;;;;;;5065175;28;19929;-69
2023/09/23 10:51:23;;;;;;;;;;;16.80;76.20;;;;;;5065731;28;19933;-69
2023/09/23 10:53:50;;;;;;;;;;;16.80;76.30;;;;;;5072391;28;19939;-69
2023/09/23 10:56:16;;;;;;;;;;;16.90;76.20;;;;;;5063027;28;19932;-70
2023/09/23 10:58:43;;;;;;;;;;;16.90;75.90;;;;;;5071093;28;19939;-70
2023/09/23 11:01:12;;;;;;;;;;;17.00;75.90;;;;;;5065000;28;21476;-70
2023/09/23 11:03:39;;;;;;;;;;;17.10;76.50;;;;;;5065703;28;19929;-70
2023/09/23 11:06:08;;;;;;;;;;;17.10;76.00;;;;;;5068102;28;20015;-69
2023/09/23 11:08:36;;;;;;;;;;;17.10;76.60;;;;;;5069872;28;19928;-70
2023/09/23 11:11:02;;;;;;;;;;;17.10;76.20;;;;;;5063843;28;19939;-70
2023/09/23 11:13:31;;;;;;;;;;;17.20;75.60;;;;;;5070522;28;19928;-69
2023/09/23 11:15:58;;;;;;;;;;;17.20;76.20;;;;;;5067627;28;19936;-68
2023/09/23 11:18:28;;;;;;;;;;;17.30;75.30;;;;;;5067394;28;19932;-69
2023/09/23 11:20:54;;;;;;;;;;;17.30;75.50;;;;;;5067039;28;20534;-70
2023/09/23 11:23:29;;;;;;;;;;;17.30;74.90;;;;;;5065384;28;19931;-70
2023/09/23 11:25:56;;;;;;;;;;;17.40;74.90;;;;;;5062771;28;19928;-70
2023/09/23 11:28:23;;;;;;;;;;;17.40;74.10;;;;;;5068467;28;19929;-70
2023/09/23 11:30:50;;;;;;;;;;;17.50;75.30;;;;;;5061906;28;20408;-70
2023/09/23 11:33:17;;;;;;;;;;;17.50;74.70;;;;;;5068439;28;20023;-69
2023/09/23 11:35:44;;;;;;;;;;;17.60;75.50;;;;;;5062689;28;19940;-70
2023/09/23 11:38:11;;;;;;;;;;;17.60;74.50;;;;;;5068501;28;19935;-70
2023/09/23 11:40:39;;;;;;;;;;;17.60;74.50;;;;;;5070375;28;19929;-71
2023/09/23 11:43:06;;;;;;;;;;;17.70;74.90;;;;;;5066168;28;19936;-70
2023/09/23 11:45:32;;;;;;;;;;;17.70;74.00;;;;;;5067385;28;19935;-69
2023/09/23 11:47:59;;;;;;;;;;;17.70;74.30;;;;;;5068476;28;19963;-69
2023/09/23 11:50:26;;;;;;;;;;;17.70;74.40;;;;;;5068704;28;20002;-71
2023/09/23 11:52:53;;;;;;;;;;;17.70;73.30;;;;;;5069635;28;19935;-70
2023/09/23 11:55:22;;;;;;;;;;;17.70;74.30;;;;;;5065133;28;20461;-70
2023/09/23 11:57:50;;;;;;;;;;;17.80;72.90;;;;;;5062672;28;19928;-71
2023/09/23 12:00:17;;;;;;;;;;;17.80;74.20;;;;;;5062320;28;19928;-71
2023/09/23 12:02:44;;;;;;;;;;;17.80;73.70;;;;;;5067447;28;20412;-69
2023/09/23 12:05:12;;;;;;;;;;;17.90;73.70;;;;;;5064388;28;19935;-69
2023/09/23 12:07:38;;;;;;;;;;;17.90;74.40;;;;;;5067993;28;20362;-69
2023/09/23 12:10:05;;;;;;;;;;;17.90;74.00;;;;;;5065691;28;19936;-69
2023/09/23 12:12:32;;;;;;;;;;;17.90;73.10;;;;;;5068418;28;19928;-69
2023/09/23 12:15:01;;;;;;;;;;;17.90;72.60;;;;;;5070134;28;19928;-69
2023/09/23 12:17:27;;;;;;;;;;;17.90;73.00;;;;;;5065557;28;19936;-68
2023/09/23 12:19:54;;;;;;;;;;;18.00;72.00;;;;;;5061737;28;19935;-70
2023/09/23 12:22:20;;;;;;;;;;;18.00;73.00;;;;;;5067312;28;19928;-69
2023/09/23 12:24:49;;;;;;;;;;;18.00;72.10;;;;;;5067424;28;19935;-69
2023/09/23 12:27:17;;;;;;;;;;;18.10;72.80;;;;;;5066022;28;19928;-69
2023/09/23 12:29:43;;;;;;;;;;;18.10;72.20;;;;;;5064709;28;19932;-69
2023/09/23 12:32:12;;;;;;;;;;;18.10;72.00;;;;;;5062672;28;19928;-70
2023/09/23 12:34:38;;;;;;;;;;;18.10;72.60;;;;;;5060655;28;19978;-72
2023/09/23 12:37:05;;;;;;;;;;;18.20;72.00;;;;;;5063223;28;19928;-70
2023/09/23 12:39:32;;;;;;;;;;;18.20;73.10;;;;;;5064446;28;19928;-69
2023/09/23 12:41:58;;;;;;;;;;;18.20;72.80;;;;;;5067607;28;19936;-70
2023/09/23 12:44:25;;;;;;;;;;;18.20;72.00;;;;;;5069667;28;19931;-71
2023/09/23 12:46:51;;;;;;;;;;;18.20;72.70;;;;;;5066362;28;19928;-71
2023/09/23 12:49:19;;;;;;;;;;;18.30;72.50;;;;;;5064185;28;19928;-70
2023/09/23 12:51:47;;;;;;;;;;;18.20;72.40;;;;;;5064058;28;19936;-70
2023/09/23 12:54:13;;;;;;;;;;;18.20;71.90;;;;;;5066173;28;20471;-71
2023/09/23 12:56:40;;;;;;;;;;;18.20;72.80;;;;;;5060731;28;19929;-71
2023/09/23 12:59:07;;;;;;;;;;;18.20;72.70;;;;;;5068542;28;19928;-68
2023/09/23 13:01:33;;;;;;;;;;;18.20;73.20;;;;;;5067135;28;19964;-71
2023/09/23 13:04:00;;;;;;;;;;;18.20;73.10;;;;;;5066760;28;19928;-70
2023/09/23 13:06:28;;;;;;;;;;;18.20;72.70;;;;;;5066207;28;19932;-69
2023/09/23 13:08:54;;;;;;;;;;;18.10;72.70;;;;;;5069196;28;19933;-70
2023/09/23 13:11:22;;;;;;;;;;;18.20;72.60;;;;;;5067899;28;19924;-70
2023/09/23 13:13:49;;;;;;;;;;;18.20;72.60;;;;;;5070823;28;19928;-71
2023/09/23 13:16:16;;;;;;;;;;;18.20;72.20;;;;;;5069452;28;19928;-70
2023/09/23 13:18:42;;;;;;;;;;;18.20;72.50;;;;;;5068300;28;19939;-70
2023/09/23 13:21:10;;;;;;;;;;;18.20;72.70;;;;;;5069779;28;19935;-71
2023/09/23 13:23:38;;;;;;;;;;;18.20;71.30;;;;;;5068391;28;20054;-71
2023/09/23 13:26:05;;;;;;;;;;;18.20;72.60;;;;;;5069196;28;19990;-71
2023/09/23 13:28:31;;;;;;;;;;;18.20;71.70;;;;;;5068316;28;19936;-70
2023/09/23 13:30:59;;;;;;;;;;;18.20;72.40;;;;;;5067093;28;19940;-70
2023/09/23 13:33:26;;;;;;;;;;;18.20;73.10;;;;;;5065428;28;20033;-71
2023/09/23 13:35:53;;;;;;;;;;;18.20;72.50;;;;;;5071348;28;19935;-69
2023/09/23 13:38:19;;;;;;;;;;;18.20;73.50;;;;;;5069910;28;19928;-70
2023/09/23 13:40:47;;;;;;;;;;;18.20;72.50;;;;;;5064050;28;20402;-69
2023/09/23 13:43:14;;;;;;;;;;;18.20;71.60;;;;;;5069291;28;20327;-69
2023/09/23 13:45:41;;;;;;;;;;;18.20;73.10;;;;;;5067662;28;19929;-71
2023/09/23 13:48:08;;;;;;;;;;;18.20;72.90;;;;;;5070199;28;20239;-70
2023/09/23 13:50:35;;;;;;;;;;;18.20;73.30;;;;;;5065874;28;20007;-70
2023/09/23 13:53:02;;;;;;;;;;;18.20;73.00;;;;;;5070238;28;19970;-71
2023/09/23 13:55:29;;;;;;;;;;;18.20;73.80;;;;;;5064634;28;19936;-69
2023/09/23 13:57:57;;;;;;;;;;;18.20;73.10;;;;;;5067535;28;19925;-71
2023/09/23 14:00:23;;;;;;;;;;;18.20;72.70;;;;;;5065674;28;19939;-70
2023/09/23 14:02:50;;;;;;;;;;;18.20;73.00;;;;;;5068204;28;19932;-70
2023/09/23 14:05:17;;;;;;;;;;;18.20;73.70;;;;;;5062399;28;19929;-71
2023/09/23 14:07:43;;;;;;;;;;;18.20;72.40;;;;;;5063268;28;19932;-71
2023/09/23 14:10:10;;;;;;;;;;;18.20;73.30;;;;;;5062531;28;19933;-70
2023/09/23 14:12:38;;;;;;;;;;;18.20;71.80;;;;;;5067890;28;19931;-70
2023/09/23 14:15:06;;;;;;;;;;;18.20;72.20;;;;;;5068369;28;19936;-71
2023/09/23 14:17:33;;;;;;;;;;;18.20;73.80;;;;;;5066460;28;19935;-71